Time;durP1;ratioP1;P1;durP2;ratioP2;P2;SDS_P1;SDS_P2;PMS_P1;PMS_P2;Temp;Humidity;BMP_temperature;BMP_pressure;BME280_temperature;BME280_humidity;BME280_pressure;Samples;Min_cycle;Max_cycle;Signal;HPM_P1;HPM_P2
2021/08/04 00:00:33;;;;;;;3.90;2.80;;;18.60;99.90;;;;;;5075418;28;20472;-82
2021/08/04 00:03:00;;;;;;;3.07;2.77;;;18.50;99.90;;;;;;5075214;28;20559;-82
2021/08/04 00:05:27;;;;;;;3.97;3.10;;;18.50;99.90;;;;;;5075207;28;21068;-81
2021/08/04 00:07:53;;;;;;;3.40;3.10;;;18.50;99.90;;;;;;5075152;28;21005;-82
2021/08/04 00:10:22;;;;;;;3.33;3.03;;;18.40;99.90;;;;;;5075097;28;20512;-81
2021/08/04 00:12:49;;;;;;;3.10;2.80;;;18.40;99.90;;;;;;5075204;28;20534;-82
2021/08/04 00:15:17;;;;;;;6.30;3.20;;;18.40;99.90;;;;;;5075042;28;20479;-82
2021/08/04 00:17:44;;;;;;;3.30;3.10;;;18.40;99.90;;;;;;5075635;28;20538;-82
2021/08/04 00:20:12;;;;;;;2.67;2.43;;;18.30;99.90;;;;;;5074917;28;20490;-82
2021/08/04 00:22:39;;;;;;;3.10;2.90;;;18.40;99.90;;;;;;5075234;28;20444;-82
2021/08/04 00:25:06;;;;;;;3.10;2.80;;;18.40;99.90;;;;;;5075517;28;20570;-81
2021/08/04 00:27:35;;;;;;;3.60;3.30;;;18.40;99.90;;;;;;5072343;28;20534;-81
2021/08/04 00:30:02;;;;;;;2.93;2.73;;;18.40;99.90;;;;;;5075007;28;20454;-81
2021/08/04 00:32:28;;;;;;;3.07;2.87;;;18.30;99.90;;;;;;5075468;28;20531;-81
2021/08/04 00:34:55;;;;;;;3.20;3.00;;;18.30;99.90;;;;;;5075364;28;20486;-82
2021/08/04 00:37:21;;;;;;;2.53;2.33;;;18.30;99.90;;;;;;5074721;28;20527;-81
2021/08/04 00:39:49;;;;;;;3.40;3.20;;;18.30;99.90;;;;;;5074575;28;20519;-81
2021/08/04 00:42:17;;;;;;;3.87;3.57;;;18.30;99.90;;;;;;5074624;28;20454;-81
2021/08/04 00:44:45;;;;;;;2.50;2.40;;;18.30;99.90;;;;;;5074912;28;20467;-81
2021/08/04 00:47:12;;;;;;;3.83;3.53;;;18.30;99.90;;;;;;5074113;28;20954;-81
2021/08/04 00:49:39;;;;;;;3.07;2.87;;;18.30;99.90;;;;;;5074788;28;20527;-82
2021/08/04 00:52:06;;;;;;;3.20;3.00;;;18.30;99.90;;;;;;5075089;28;20538;-82
2021/08/04 00:54:33;;;;;;;2.73;2.47;;;18.40;99.90;;;;;;5075170;28;20475;-82
2021/08/04 00:56:59;;;;;;;3.10;2.90;;;18.30;99.90;;;;;;5074475;28;21018;-81
2021/08/04 00:59:26;;;;;;;3.10;2.80;;;18.30;99.90;;;;;;5074438;28;20534;-81
2021/08/04 01:02:01;;;;;;;2.60;2.50;;;18.30;99.90;;;;;;5074430;28;20443;-81
2021/08/04 01:04:31;;;;;;;2.83;2.50;;;18.30;99.90;;;;;;5065186;28;20908;-81
2021/08/04 01:07:05;;;;;;;2.97;2.37;;;18.30;99.90;;;;;;5074164;28;20558;-81
2021/08/04 01:09:44;;;;;;;2.50;2.20;;;18.40;99.90;;;;;;5072762;28;20470;-81
2021/08/04 01:12:14;;;;;;;2.20;2.10;;;18.40;99.90;;;;;;5074525;28;20482;-81
2021/08/04 01:14:43;;;;;;;2.20;2.10;;;18.40;99.90;;;;;;5074236;28;20550;-81
2021/08/04 01:17:12;;;;;;;1.70;1.60;;;18.40;99.90;;;;;;5074094;28;20479;-79
2021/08/04 01:19:53;;;;;;;1.93;1.80;;;18.40;99.90;;;;;;5073882;28;20459;-80
2021/08/04 01:22:27;;;;;;;2.07;1.90;;;18.40;99.90;;;;;;5064229;28;20447;-80
2021/08/04 01:24:59;;;;;;;1.93;1.83;;;18.30;99.90;;;;;;5073715;28;20917;-80
2021/08/04 01:27:27;;;;;;;1.87;1.77;;;18.30;99.90;;;;;;5073858;28;20981;-82
2021/08/04 01:29:56;;;;;;;2.07;1.97;;;18.30;99.90;;;;;;5074020;28;20539;-81
2021/08/04 01:32:23;;;;;;;1.90;1.80;;;18.30;99.90;;;;;;5073736;28;20526;-81
2021/08/04 01:34:51;;;;;;;2.70;2.50;;;18.30;99.90;;;;;;5069155;28;20479;-81
2021/08/04 01:37:20;;;;;;;2.60;2.40;;;18.30;99.90;;;;;;5071725;28;20969;-80
2021/08/04 01:39:48;;;;;;;2.50;2.40;;;18.30;99.90;;;;;;5072858;28;20467;-80
2021/08/04 01:42:16;;;;;;;2.60;2.40;;;18.30;99.90;;;;;;5071446;28;20439;-79
2021/08/04 01:44:45;;;;;;;2.60;2.40;;;18.30;99.90;;;;;;5071622;28;20468;-80
2021/08/04 01:47:12;;;;;;;2.50;2.30;;;18.20;99.90;;;;;;5071430;28;20538;-80
2021/08/04 01:49:40;;;;;;;2.40;2.30;;;18.20;99.90;;;;;;5072351;28;20530;-80
2021/08/04 01:52:07;;;;;;;2.90;2.70;;;18.20;99.90;;;;;;5072137;28;20471;-80
2021/08/04 01:54:35;;;;;;;2.90;2.70;;;18.20;99.90;;;;;;5072094;28;21009;-80
2021/08/04 01:57:02;;;;;;;3.10;2.60;;;18.20;99.90;;;;;;5073466;28;20459;-80
2021/08/04 01:59:29;;;;;;;2.93;2.70;;;18.20;99.90;;;;;;5073616;28;20550;-81
2021/08/04 02:02:18;;;;;;;2.67;2.50;;;18.10;99.90;;;;;;5073817;28;20540;-81
2021/08/04 02:04:45;;;;;;;3.17;2.97;;;18.10;99.90;;;;;;5073728;28;20553;-81
2021/08/04 02:07:27;;;;;;;4.67;3.00;;;18.10;99.90;;;;;;5074027;28;20849;-82
2021/08/04 02:09:57;;;;;;;4.90;2.67;;;18.10;99.90;;;;;;5073554;28;20486;-82
2021/08/04 02:12:24;;;;;;;2.97;2.77;;;18.10;99.90;;;;;;5072804;28;21017;-82
2021/08/04 02:14:55;;;;;;;3.00;2.80;;;18.10;99.90;;;;;;5073021;28;20538;-82
2021/08/04 02:17:32;;;;;;;3.37;3.10;;;18.10;99.90;;;;;;5073181;28;20453;-81
2021/08/04 02:20:03;;;;;;;3.00;2.70;;;18.10;99.90;;;;;;5073567;28;20534;-81
2021/08/04 02:22:35;;;;;;;2.43;2.33;;;18.10;99.90;;;;;;5073185;28;20473;-81
2021/08/04 02:25:06;;;;;;;4.17;3.20;;;18.10;99.90;;;;;;5073273;28;20497;-81
2021/08/04 02:27:37;;;;;;;3.10;2.90;;;18.10;99.90;;;;;;5057140;28;20524;-81
2021/08/04 02:30:06;;;;;;;3.57;3.27;;;18.10;99.90;;;;;;5072952;28;20530;-81
2021/08/04 02:32:34;;;;;;;3.60;3.30;;;18.10;99.90;;;;;;5076983;28;20538;-81
2021/08/04 02:35:01;;;;;;;3.20;3.00;;;18.10;99.90;;;;;;5072974;28;20534;-81
2021/08/04 02:37:28;;;;;;;3.50;3.20;;;18.10;99.90;;;;;;5072802;28;20484;-81
2021/08/04 02:39:55;;;;;;;3.50;2.83;;;18.10;99.90;;;;;;5072956;28;20999;-81
2021/08/04 02:42:22;;;;;;;3.50;3.30;;;18.10;99.90;;;;;;5072509;28;20873;-80
2021/08/04 02:44:49;;;;;;;4.40;4.00;;;18.10;99.90;;;;;;5072827;28;20443;-82
2021/08/04 02:47:16;;;;;;;3.90;3.60;;;18.10;99.90;;;;;;5071801;28;20536;-82
2021/08/04 02:49:45;;;;;;;4.03;3.73;;;18.10;99.90;;;;;;5072725;28;20538;-82
2021/08/04 02:52:13;;;;;;;3.50;3.30;;;18.10;99.90;;;;;;5072487;28;20538;-82
2021/08/04 02:54:44;;;;;;;4.27;3.97;;;18.10;99.90;;;;;;5072522;28;20780;-82
2021/08/04 02:57:11;;;;;;;4.37;3.97;;;18.10;99.90;;;;;;5072514;28;20447;-82
2021/08/04 02:59:37;;;;;;;3.83;3.63;;;18.10;99.90;;;;;;5072611;28;20531;-80
2021/08/04 03:02:05;;;;;;;4.07;3.77;;;18.10;99.90;;;;;;5072550;28;20534;-81
2021/08/04 03:04:31;;;;;;;4.50;4.10;;;18.10;99.90;;;;;;5072187;28;20513;-82
2021/08/04 03:06:59;;;;;;;4.03;3.67;;;18.10;99.90;;;;;;5072079;28;20479;-82
2021/08/04 03:09:26;;;;;;;4.37;3.97;;;18.10;99.90;;;;;;5072184;28;20542;-81
2021/08/04 03:11:52;;;;;;;3.80;3.50;;;18.10;99.90;;;;;;5072331;28;20469;-81
2021/08/04 03:14:19;;;;;;;4.37;4.07;;;18.10;99.90;;;;;;5072595;28;20998;-81
2021/08/04 03:16:45;;;;;;;3.83;3.63;;;18.10;99.90;;;;;;5072167;28;21014;-81
2021/08/04 03:19:13;;;;;;;8.33;4.00;;;18.10;99.90;;;;;;5072311;28;20536;-81
2021/08/04 03:21:39;;;;;;;4.43;4.13;;;18.10;99.90;;;;;;5072301;28;21024;-81
2021/08/04 03:24:07;;;;;;;4.10;3.80;;;18.00;99.90;;;;;;5072204;28;20471;-81
2021/08/04 03:26:34;;;;;;;4.17;3.83;;;18.00;99.90;;;;;;5076261;28;20964;-81
2021/08/04 03:29:01;;;;;;;4.63;3.70;;;18.00;99.90;;;;;;5076299;28;20447;-81
2021/08/04 03:31:27;;;;;;;3.87;3.57;;;18.00;99.90;;;;;;5076172;28;20439;-81
2021/08/04 03:33:54;;;;;;;4.10;3.80;;;18.00;99.90;;;;;;5076037;28;20475;-81
2021/08/04 03:36:21;;;;;;;5.17;3.73;;;18.00;99.90;;;;;;5075954;28;20537;-81
2021/08/04 03:38:47;;;;;;;4.00;3.13;;;18.00;99.90;;;;;;5075927;28;20928;-81
2021/08/04 03:41:15;;;;;;;4.40;4.00;;;18.00;99.90;;;;;;5076123;28;20436;-81
2021/08/04 03:43:41;;;;;;;4.07;3.63;;;18.00;99.90;;;;;;5075979;28;20542;-81
2021/08/04 03:46:08;;;;;;;4.17;3.87;;;18.00;99.90;;;;;;5075795;28;20573;-81
2021/08/04 03:48:34;;;;;;;5.73;4.40;;;18.00;99.90;;;;;;5074761;28;20546;-82
2021/08/04 03:51:02;;;;;;;5.27;4.00;;;18.00;99.90;;;;;;5075720;28;20482;-82
2021/08/04 03:53:29;;;;;;;4.07;3.77;;;18.00;99.90;;;;;;5075764;28;20965;-81
2021/08/04 03:55:56;;;;;;;4.17;3.83;;;17.90;99.90;;;;;;5075880;28;20867;-81
2021/08/04 03:58:24;;;;;;;5.53;3.70;;;18.00;99.90;;;;;;5075567;28;20471;-81
2021/08/04 04:00:50;;;;;;;5.10;4.47;;;17.90;99.90;;;;;;5075488;28;21005;-81
2021/08/04 04:03:17;;;;;;;4.40;4.00;;;17.90;99.90;;;;;;5075287;28;20546;-81
2021/08/04 04:05:44;;;;;;;4.73;4.33;;;17.90;99.90;;;;;;5075377;28;20561;-81
2021/08/04 04:08:11;;;;;;;6.20;4.57;;;17.90;99.90;;;;;;5075588;28;20478;-80
2021/08/04 04:10:38;;;;;;;5.70;5.30;;;17.90;99.90;;;;;;5075594;28;20891;-81
2021/08/04 04:13:04;;;;;;;4.50;4.20;;;17.90;99.90;;;;;;5075295;28;20534;-80
2021/08/04 04:15:32;;;;;;;5.23;4.67;;;18.00;99.90;;;;;;5058942;28;20506;-80
2021/08/04 04:17:59;;;;;;;4.53;4.23;;;18.00;99.90;;;;;;5075222;28;20626;-80
2021/08/04 04:20:25;;;;;;;6.80;4.57;;;18.00;99.90;;;;;;5075147;28;21005;-81
2021/08/04 04:22:51;;;;;;;5.10;4.60;;;18.00;99.90;;;;;;5075297;28;20629;-81
2021/08/04 04:25:18;;;;;;;5.43;4.93;;;18.00;99.90;;;;;;5075207;28;20887;-81
2021/08/04 04:27:45;;;;;;;5.40;4.90;;;18.10;99.90;;;;;;5075173;28;20877;-81
2021/08/04 04:30:12;;;;;;;5.17;4.77;;;18.10;99.90;;;;;;5075158;28;20978;-81
2021/08/04 04:32:40;;;;;;;5.17;4.73;;;18.10;99.90;;;;;;5074812;28;20826;-81
2021/08/04 04:35:08;;;;;;;5.23;4.43;;;18.10;99.90;;;;;;5074547;28;20455;-81
2021/08/04 04:37:35;;;;;;;5.70;4.80;;;18.10;99.90;;;;;;5074896;28;20522;-80
2021/08/04 04:40:01;;;;;;;5.87;5.10;;;18.20;99.90;;;;;;5075051;28;20474;-80
2021/08/04 04:42:28;;;;;;;4.83;4.53;;;18.20;99.90;;;;;;5074917;28;20527;-80
2021/08/04 04:44:54;;;;;;;4.90;4.50;;;18.20;99.90;;;;;;5074772;28;20538;-80
2021/08/04 04:47:21;;;;;;;5.43;5.03;;;18.20;99.90;;;;;;5073685;28;21042;-80
2021/08/04 04:49:48;;;;;;;4.33;4.10;;;18.20;99.90;;;;;;5074770;28;20482;-80
2021/08/04 04:52:15;;;;;;;4.77;4.47;;;18.20;99.90;;;;;;5073136;28;20447;-81
2021/08/04 04:54:42;;;;;;;6.07;5.67;;;18.30;99.90;;;;;;5071090;28;20536;-81
2021/08/04 04:57:08;;;;;;;6.03;5.20;;;18.20;99.90;;;;;;5073897;28;20490;-81
2021/08/04 04:59:35;;;;;;;5.80;5.30;;;18.20;99.90;;;;;;5073740;28;20530;-80
2021/08/04 05:02:01;;;;;;;6.03;5.30;;;18.10;99.90;;;;;;5074402;28;20452;-78
2021/08/04 05:04:28;;;;;;;5.80;5.40;;;18.10;99.90;;;;;;5073994;28;20546;-78
2021/08/04 05:06:55;;;;;;;5.80;5.40;;;18.10;99.90;;;;;;5074313;28;20568;-78
2021/08/04 05:09:22;;;;;;;5.73;5.40;;;18.10;99.90;;;;;;5074137;28;20879;-79
2021/08/04 05:11:48;;;;;;;6.10;5.70;;;18.20;99.90;;;;;;5074306;28;20447;-78
2021/08/04 05:14:15;;;;;;;5.80;5.30;;;18.20;99.90;;;;;;5074118;28;20538;-79
2021/08/04 05:16:41;;;;;;;6.20;5.60;;;18.30;99.90;;;;;;5074179;28;20443;-79
2021/08/04 05:19:08;;;;;;;8.10;5.23;;;18.40;99.90;;;;;;5071953;28;20479;-79
2021/08/04 05:21:35;;;;;;;6.07;5.57;;;18.50;99.90;;;;;;5073873;28;20972;-80
2021/08/04 05:24:02;;;;;;;7.87;5.30;;;18.70;99.90;;;;;;5073873;28;20531;-80
2021/08/04 05:26:29;;;;;;;7.60;4.80;;;18.70;99.90;;;;;;5073192;28;20475;-79
2021/08/04 05:28:56;;;;;;;5.60;5.20;;;18.80;99.90;;;;;;5072996;28;20534;-80
2021/08/04 05:31:25;;;;;;;6.33;5.73;;;18.80;99.90;;;;;;5073550;28;20475;-79
2021/08/04 05:33:51;;;;;;;5.63;5.13;;;18.80;99.90;;;;;;5073518;28;20475;-79
2021/08/04 05:36:18;;;;;;;5.03;4.57;;;18.90;99.90;;;;;;5073209;28;20877;-80
2021/08/04 05:38:45;;;;;;;4.93;4.50;;;19.00;99.90;;;;;;5073149;28;20591;-79
2021/08/04 05:41:12;;;;;;;5.53;4.73;;;19.10;99.90;;;;;;5072947;28;20451;-80
2021/08/04 05:43:39;;;;;;;4.93;4.53;;;19.20;99.90;;;;;;5072783;28;20542;-79
2021/08/04 05:46:05;;;;;;;4.10;3.87;;;19.30;99.90;;;;;;5073214;28;20550;-78
2021/08/04 05:48:32;;;;;;;5.40;5.03;;;19.40;99.90;;;;;;5071087;28;20479;-79
2021/08/04 05:50:58;;;;;;;4.60;4.30;;;19.50;99.90;;;;;;5072883;28;20530;-79
2021/08/04 05:53:25;;;;;;;4.80;4.40;;;19.60;99.90;;;;;;5072606;28;20528;-79
2021/08/04 05:55:51;;;;;;;5.10;4.67;;;19.80;99.90;;;;;;5072779;28;20443;-80
2021/08/04 05:58:19;;;;;;;5.13;4.73;;;19.90;99.90;;;;;;5072894;28;20519;-79
2021/08/04 06:00:46;;;;;;;4.77;4.30;;;20.10;99.90;;;;;;5072300;28;20482;-79
2021/08/04 06:03:12;;;;;;;4.87;4.50;;;20.30;99.90;;;;;;5072640;28;20493;-79
2021/08/04 06:05:39;;;;;;;3.67;3.37;;;20.40;99.90;;;;;;5072507;28;20526;-79
2021/08/04 06:08:07;;;;;;;4.90;4.50;;;20.60;99.90;;;;;;5072531;28;20447;-79
2021/08/04 06:10:34;;;;;;;4.33;4.00;;;20.70;99.90;;;;;;5072123;28;20887;-79
2021/08/04 06:13:01;;;;;;;4.40;4.00;;;20.90;99.90;;;;;;5072381;28;20542;-80
2021/08/04 06:15:29;;;;;;;3.73;3.43;;;21.00;99.90;;;;;;5072216;28;20484;-80
2021/08/04 06:17:55;;;;;;;4.40;3.87;;;21.20;99.90;;;;;;5072617;28;20488;-80
2021/08/04 06:20:22;;;;;;;5.10;4.63;;;21.30;99.90;;;;;;5072185;28;20479;-80
2021/08/04 06:22:48;;;;;;;4.13;3.83;;;21.40;99.90;;;;;;5072226;28;21005;-78
2021/08/04 06:25:15;;;;;;;3.63;3.43;;;21.50;99.90;;;;;;5071551;28;20526;-78
2021/08/04 06:27:41;;;;;;;4.03;3.73;;;21.60;99.90;;;;;;5072690;28;20475;-78
2021/08/04 06:30:08;;;;;;;5.13;4.33;;;21.80;99.90;;;;;;5072768;28;20526;-78
2021/08/04 06:32:36;;;;;;;3.73;3.43;;;22.10;99.90;;;;;;5072811;28;20544;-78
2021/08/04 06:35:03;;;;;;;3.20;3.00;;;22.30;99.90;;;;;;5072631;28;20540;-78
2021/08/04 06:37:30;;;;;;;3.00;2.90;;;22.50;99.90;;;;;;5072536;28;20584;-79
2021/08/04 06:39:56;;;;;;;3.00;2.80;;;22.60;99.90;;;;;;5072641;28;20444;-78
2021/08/04 06:42:23;;;;;;;3.50;3.27;;;22.70;99.90;;;;;;5072742;28;20494;-78
2021/08/04 06:44:49;;;;;;;3.53;3.23;;;22.70;99.90;;;;;;5072857;28;20542;-78
2021/08/04 06:47:16;;;;;;;4.07;3.77;;;22.80;99.90;;;;;;5071720;28;20575;-78
2021/08/04 06:49:43;;;;;;;3.53;3.23;;;22.90;99.90;;;;;;5072695;28;20439;-78
2021/08/04 06:52:10;;;;;;;3.77;3.47;;;23.00;99.90;;;;;;5072308;28;20471;-81
2021/08/04 06:54:37;;;;;;;3.50;3.20;;;23.00;99.90;;;;;;5072581;28;20475;-78
2021/08/04 06:57:04;;;;;;;3.60;3.30;;;23.10;99.90;;;;;;5072698;28;20446;-78
2021/08/04 06:59:30;;;;;;;3.93;3.03;;;23.10;99.90;;;;;;5072269;28;20444;-78
2021/08/04 07:02:01;;;;;;;3.03;2.67;;;23.20;99.90;;;;;;5072610;28;20536;-77
2021/08/04 07:04:27;;;;;;;3.13;2.93;;;23.30;99.90;;;;;;5072483;28;20486;-78
2021/08/04 07:06:57;;;;;;;2.80;2.50;;;23.40;99.90;;;;;;5072865;28;20578;-78
2021/08/04 07:09:23;;;;;;;3.23;3.03;;;23.50;99.90;;;;;;5072802;28;21010;-78
2021/08/04 07:11:50;;;;;;;2.90;2.70;;;23.60;99.90;;;;;;5072865;28;20531;-78
2021/08/04 07:14:17;;;;;;;4.33;3.17;;;23.60;99.90;;;;;;5072523;28;20984;-78
2021/08/04 07:16:44;;;;;;;2.40;2.17;;;23.70;99.90;;;;;;5072479;28;20534;-77
2021/08/04 07:19:11;;;;;;;3.10;2.90;;;23.80;99.90;;;;;;5072607;28;20447;-79
2021/08/04 07:21:38;;;;;;;3.07;2.87;;;23.90;99.90;;;;;;5072137;28;20797;-78
2021/08/04 07:24:07;;;;;;;4.90;3.10;;;23.90;99.90;;;;;;5072135;28;20538;-78
2021/08/04 07:26:34;;;;;;;3.13;2.93;;;24.00;99.90;;;;;;5072169;28;20491;-78
2021/08/04 07:29:01;;;;;;;4.20;3.90;;;24.10;99.90;;;;;;5071330;28;20811;-78
2021/08/04 07:31:27;;;;;;;3.20;3.00;;;24.30;99.90;;;;;;5071571;28;20479;-78
2021/08/04 07:33:54;;;;;;;4.03;2.63;;;24.40;99.90;;;;;;5062375;28;20455;-75
2021/08/04 07:36:20;;;;;;;3.20;2.90;;;24.50;99.90;;;;;;5070770;28;20534;-75
2021/08/04 07:38:47;;;;;;;4.60;2.80;;;24.60;99.90;;;;;;5071879;28;20534;-75
2021/08/04 07:41:15;;;;;;;3.20;2.90;;;24.60;99.90;;;;;;5071435;28;20538;-75
2021/08/04 07:43:42;;;;;;;2.60;2.40;;;24.70;99.90;;;;;;5071617;28;20559;-75
2021/08/04 07:46:09;;;;;;;6.07;4.90;;;24.80;99.90;;;;;;5071488;28;20479;-75
2021/08/04 07:48:35;;;;;;;32.90;29.50;;;24.80;99.90;;;;;;5070673;28;20443;-75
2021/08/04 07:51:02;;;;;;;10.90;9.83;;;24.80;99.90;;;;;;5071822;28;20471;-75
2021/08/04 07:53:29;;;;;;;5.27;4.87;;;24.90;99.90;;;;;;5071620;28;20467;-75
2021/08/04 07:55:56;;;;;;;3.17;2.93;;;25.00;99.90;;;;;;5071645;28;20534;-75
2021/08/04 07:58:24;;;;;;;3.17;2.87;;;25.10;99.90;;;;;;5071540;28;20889;-75
2021/08/04 08:00:51;;;;;;;2.83;2.43;;;25.20;99.90;;;;;;5071496;28;20514;-76
2021/08/04 08:03:17;;;;;;;3.87;2.70;;;25.20;99.90;;;;;;5071255;28;20562;-76
2021/08/04 08:05:44;;;;;;;3.70;2.73;;;25.30;99.90;;;;;;5071587;28;20468;-75
2021/08/04 08:08:12;;;;;;;2.33;2.23;;;25.30;99.90;;;;;;5071446;28;20554;-75
2021/08/04 08:10:41;;;;;;;5.50;5.00;;;25.30;99.90;;;;;;5072254;28;20916;-75
2021/08/04 08:13:08;;;;;;;3.30;3.10;;;25.40;99.90;;;;;;5075084;28;20534;-75
2021/08/04 08:15:36;;;;;;;3.13;2.43;;;25.40;99.90;;;;;;5074735;28;20447;-75
2021/08/04 08:18:08;;;;;;;4.77;2.37;;;25.50;99.90;;;;;;5074985;28;20473;-76
2021/08/04 08:20:34;;;;;;;2.97;2.77;;;25.60;99.90;;;;;;5075014;28;20436;-75
2021/08/04 08:23:01;;;;;;;2.60;2.40;;;25.70;99.90;;;;;;5074995;28;20474;-76
2021/08/04 08:25:28;;;;;;;4.23;2.60;;;25.90;99.90;;;;;;5074697;28;20439;-76
2021/08/04 08:27:54;;;;;;;4.67;4.10;;;26.00;99.90;;;;;;5074442;28;20540;-76
2021/08/04 08:30:23;;;;;;;4.43;4.13;;;26.10;99.90;;;;;;5074486;28;20479;-75
2021/08/04 08:32:50;;;;;;;5.23;2.83;;;26.20;99.90;;;;;;5074991;28;20546;-76
2021/08/04 08:35:18;;;;;;;3.10;2.50;;;26.30;99.90;;;;;;5074780;28;20533;-76
2021/08/04 08:37:45;;;;;;;2.43;2.23;;;26.40;99.90;;;;;;5074593;28;20474;-76
2021/08/04 08:40:14;;;;;;;2.70;2.40;;;26.40;99.90;;;;;;5074569;28;20531;-76
2021/08/04 08:42:40;;;;;;;3.30;2.30;;;26.40;99.90;;;;;;5074235;28;20482;-76
2021/08/04 08:45:09;;;;;;;2.60;2.40;;;26.30;99.90;;;;;;5074555;28;20534;-76
2021/08/04 08:47:35;;;;;;;2.13;1.93;;;26.20;99.90;;;;;;5073245;28;20562;-76
2021/08/04 08:50:06;;;;;;;2.10;2.00;;;26.40;99.90;;;;;;5074075;28;20475;-76
2021/08/04 08:52:33;;;;;;;3.43;2.30;;;26.60;99.90;;;;;;5066194;28;21006;-76
2021/08/04 08:55:01;;;;;;;2.50;2.30;;;26.80;99.90;;;;;;5074451;28;20542;-76
2021/08/04 08:57:27;;;;;;;7.33;6.63;;;26.90;99.90;;;;;;5073820;28;21271;-76
2021/08/04 08:59:57;;;;;;;3.73;2.33;;;26.90;99.90;;;;;;5074411;28;20554;-76
2021/08/04 09:02:23;;;;;;;2.90;2.70;;;26.80;99.90;;;;;;5073851;28;20488;-76
2021/08/04 09:04:58;;;;;;;2.60;2.40;;;26.70;99.90;;;;;;5074314;28;20481;-76
2021/08/04 09:07:31;;;;;;;3.90;3.60;;;26.50;99.90;;;;;;5073777;28;20478;-76
2021/08/04 09:09:58;;;;;;;2.60;2.40;;;26.30;99.90;;;;;;5073946;28;20471;-75
2021/08/04 09:12:24;;;;;;;3.77;3.57;;;26.10;99.90;;;;;;5073800;28;20527;-76
2021/08/04 09:14:51;;;;;;;2.97;2.77;;;25.90;99.90;;;;;;5074133;28;20523;-76
2021/08/04 09:17:18;;;;;;;3.30;3.03;;;25.80;99.90;;;;;;5073979;28;20534;-76
2021/08/04 09:19:47;;;;;;;2.90;2.70;;;25.60;99.90;;;;;;5073892;28;20501;-76
2021/08/04 09:22:17;;;;;;;2.70;2.50;;;25.40;99.90;;;;;;5073342;28;20483;-76
2021/08/04 09:24:55;;;;;;;4.03;2.07;;;25.20;99.90;;;;;;5073922;28;20447;-76
2021/08/04 09:27:44;;;;;;;2.80;2.13;;;25.30;99.90;;;;;;5073557;28;20569;-76
2021/08/04 09:30:13;;;;;;;2.83;2.63;;;25.20;99.90;;;;;;5073636;28;20448;-76
2021/08/04 09:32:40;;;;;;;3.37;3.03;;;25.20;99.90;;;;;;5073025;28;20534;-76
2021/08/04 09:35:09;;;;;;;6.90;4.80;;;25.10;99.90;;;;;;5073673;28;20526;-76
2021/08/04 09:37:36;;;;;;;3.67;3.40;;;25.00;99.90;;;;;;5073427;28;20522;-75
2021/08/04 09:40:05;;;;;;;2.70;2.50;;;25.00;99.90;;;;;;5073498;28;20443;-76
2021/08/04 09:42:43;;;;;;;2.90;2.47;;;24.90;99.90;;;;;;5073332;28;20439;-76
2021/08/04 09:45:10;;;;;;;2.47;2.30;;;24.90;99.90;;;;;;5073098;28;20526;-76
2021/08/04 09:47:37;;;;;;;2.63;2.30;;;24.90;99.90;;;;;;5072384;28;20566;-76
2021/08/04 09:50:05;;;;;;;6.23;2.77;;;25.00;99.90;;;;;;5073377;28;20902;-76
2021/08/04 09:52:32;;;;;;;2.33;2.07;;;25.10;99.90;;;;;;5073108;28;20526;-75
2021/08/04 09:55:13;;;;;;;2.50;2.30;;;25.00;99.90;;;;;;5073138;28;20539;-76
2021/08/04 09:57:41;;;;;;;4.33;2.53;;;24.90;99.90;;;;;;5066297;28;20534;-75
2021/08/04 10:00:10;;;;;;;3.00;2.60;;;24.80;99.90;;;;;;5073016;28;20451;-76
2021/08/04 10:02:37;;;;;;;2.30;2.10;;;24.60;99.90;;;;;;5072852;28;20510;-76
2021/08/04 10:05:17;;;;;;;2.50;2.40;;;24.30;99.90;;;;;;5073101;28;20455;-76
2021/08/04 10:08:01;;;;;;;3.00;2.80;;;24.10;99.90;;;;;;5066623;28;20509;-76
2021/08/04 10:10:30;;;;;;;2.97;2.70;;;24.00;99.90;;;;;;5072892;28;20467;-75
2021/08/04 10:12:58;;;;;;;2.40;2.30;;;24.10;99.90;;;;;;5072756;28;20531;-76
2021/08/04 10:15:25;;;;;;;2.07;1.97;;;24.10;99.90;;;;;;5072670;28;20546;-76
2021/08/04 10:17:53;;;;;;;3.20;2.50;;;24.20;99.90;;;;;;5072691;28;20443;-75
2021/08/04 10:20:20;;;;;;;3.83;3.50;;;24.30;99.90;;;;;;5072674;28;20552;-76
2021/08/04 10:22:48;;;;;;;3.10;2.77;;;24.30;99.90;;;;;;5072439;28;20447;-76
2021/08/04 10:25:16;;;;;;;2.30;2.20;;;24.20;99.90;;;;;;5072717;28;20478;-76
2021/08/04 10:27:45;;;;;;;3.63;2.23;;;24.10;99.90;;;;;;5072372;28;20819;-76
2021/08/04 10:30:12;;;;;;;2.70;2.60;;;23.90;99.90;;;;;;5072477;28;20878;-76
2021/08/04 10:32:39;;;;;;;2.50;2.30;;;23.70;99.90;;;;;;5072602;28;20878;-76
2021/08/04 10:35:08;;;;;;;2.43;2.10;;;23.40;99.90;;;;;;5072170;28;20530;-76
2021/08/04 10:37:39;;;;;;;3.40;2.40;;;23.10;99.90;;;;;;5072481;28;20538;-76
2021/08/04 10:40:08;;;;;;;2.60;2.40;;;22.90;99.90;;;;;;5072487;28;20450;-75
2021/08/04 10:42:39;;;;;;;1.97;1.87;;;22.90;99.90;;;;;;5071696;28;20490;-76
2021/08/04 10:45:32;;;;;;;1.90;1.80;;;22.90;99.90;;;;;;5072002;28;20534;-76
2021/08/04 10:48:18;;;;;;;2.57;2.20;;;22.80;99.90;;;;;;5067335;28;20562;-76
2021/08/04 10:51:14;;;;;;;3.83;2.60;;;22.70;99.90;;;;;;5068773;28;20898;-76
2021/08/04 10:54:16;;;;;;;3.20;2.07;;;22.80;99.90;;;;;;5065602;28;20444;-76
2021/08/04 10:57:06;;;;;;;2.50;2.30;;;22.90;99.90;;;;;;5065810;28;20459;-76
2021/08/04 10:59:33;;;;;;;2.20;2.10;;;22.90;99.90;;;;;;5064617;28;20477;-76
2021/08/04 11:02:29;;;;;;;2.57;2.37;;;22.80;99.90;;;;;;5072185;28;20443;-76
2021/08/04 11:04:56;;;;;;;2.57;2.23;;;22.90;99.90;;;;;;5067489;28;20450;-76
2021/08/04 11:07:24;;;;;;;2.50;2.30;;;22.80;99.90;;;;;;5072069;28;20439;-77
2021/08/04 11:10:15;;;;;;;5.67;5.17;;;22.80;99.90;;;;;;5072170;28;20535;-76
2021/08/04 11:12:46;;;;;;;2.43;2.33;;;22.70;99.90;;;;;;5063550;28;20479;-77
2021/08/04 11:15:29;;;;;;;3.00;2.80;;;22.80;99.90;;;;;;5072024;28;20439;-77
2021/08/04 11:18:07;;;;;;;2.20;2.10;;;22.90;99.90;;;;;;5071830;28;20962;-76
2021/08/04 11:20:36;;;;;;;2.77;2.30;;;23.10;99.90;;;;;;5063833;28;20961;-76
2021/08/04 11:23:05;;;;;;;2.20;1.97;;;23.10;99.90;;;;;;5071824;28;20530;-77
2021/08/04 11:25:41;;;;;;;1.97;1.87;;;23.10;99.90;;;;;;5071998;28;20452;-76
2021/08/04 11:28:20;;;;;;;2.70;2.50;;;23.10;99.90;;;;;;5071768;28;20562;-77
2021/08/04 11:31:10;;;;;;;4.80;4.40;;;23.10;99.90;;;;;;5071998;28;20813;-76
2021/08/04 11:33:38;;;;;;;3.03;2.20;;;23.20;99.90;;;;;;5064567;28;20972;-77
2021/08/04 11:36:30;;;;;;;2.33;2.13;;;23.30;99.90;;;;;;5072040;28;20443;-77
2021/08/04 11:39:03;;;;;;;2.70;2.30;;;23.30;99.90;;;;;;5071785;28;20448;-77
2021/08/04 11:41:42;;;;;;;2.30;2.10;;;23.20;99.90;;;;;;5071515;28;20530;-76
2021/08/04 11:44:19;;;;;;;2.10;1.93;;;23.00;99.90;;;;;;5071510;28;20852;-76
2021/08/04 11:46:47;;;;;;;2.10;1.87;;;22.90;99.90;;;;;;5074837;28;20465;-76
2021/08/04 11:49:18;;;;;;;2.00;1.90;;;22.90;99.90;;;;;;5074922;28;20551;-77
2021/08/04 11:51:51;;;;;;;2.17;2.07;;;23.00;99.90;;;;;;5075660;28;20454;-76
2021/08/04 11:54:32;;;;;;;2.00;1.90;;;23.10;99.90;;;;;;5075103;28;20461;-77
2021/08/04 11:56:59;;;;;;;2.67;2.23;;;23.10;99.90;;;;;;5075588;28;20526;-77
2021/08/04 11:59:25;;;;;;;2.43;2.33;;;23.10;99.90;;;;;;5075207;28;20753;-76
2021/08/04 12:01:57;;;;;;;9.03;2.07;;;23.00;99.90;;;;;;5075316;28;20446;-76
2021/08/04 12:04:25;;;;;;;3.13;1.80;;;23.10;99.90;;;;;;5074907;28;20523;-77
2021/08/04 12:07:00;;;;;;;2.77;1.90;;;23.10;99.90;;;;;;5075078;28;20443;-77
2021/08/04 12:09:29;;;;;;;2.63;2.47;;;23.20;99.90;;;;;;5074929;28;20557;-77
2021/08/04 12:11:57;;;;;;;5.40;5.00;;;23.30;99.90;;;;;;5075209;28;20540;-77
2021/08/04 12:14:24;;;;;;;2.13;1.93;;;23.30;99.90;;;;;;5075020;28;20442;-76
2021/08/04 12:16:54;;;;;;;2.07;1.97;;;23.30;99.90;;;;;;5075233;28;20447;-76
2021/08/04 12:19:32;;;;;;;2.17;1.97;;;23.40;99.90;;;;;;5074874;28;20526;-76
2021/08/04 12:22:00;;;;;;;2.50;2.30;;;23.40;99.90;;;;;;5075238;28;20878;-77
2021/08/04 12:24:27;;;;;;;2.43;2.10;;;23.50;99.90;;;;;;5074819;28;20901;-77
2021/08/04 12:26:55;;;;;;;2.43;2.23;;;23.50;99.90;;;;;;5075004;28;20454;-76
2021/08/04 12:29:24;;;;;;;2.13;2.03;;;23.60;99.90;;;;;;5074554;28;20975;-77
2021/08/04 12:32:02;;;;;;;2.27;2.07;;;23.80;99.90;;;;;;5074577;28;20939;-77
2021/08/04 12:34:31;;;;;;;1.93;1.83;;;24.00;99.90;;;;;;5065945;28;20447;-77
2021/08/04 12:36:57;;;;;;;2.60;2.40;;;24.10;99.90;;;;;;5074680;28;20578;-76
2021/08/04 12:39:26;;;;;;;2.27;2.17;;;24.10;99.90;;;;;;5074517;28;20482;-77
2021/08/04 12:41:53;;;;;;;2.27;2.07;;;24.00;99.90;;;;;;5074679;28;20870;-76
2021/08/04 12:44:19;;;;;;;2.33;2.23;;;23.90;99.90;;;;;;5074252;28;20450;-77
2021/08/04 12:46:46;;;;;;;2.83;2.67;;;23.80;99.90;;;;;;5074647;28;20517;-77
2021/08/04 12:49:17;;;;;;;2.90;2.73;;;23.60;99.90;;;;;;5073545;28;20562;-77
2021/08/04 12:51:55;;;;;;;2.70;2.50;;;23.60;99.90;;;;;;5074414;28;20447;-76
2021/08/04 12:54:28;;;;;;;3.07;2.77;;;23.50;99.90;;;;;;5074234;28;20448;-76